Terminal Aerodrome Forecast
Issued by NWS Charleston, SC

Home | Current Version | Previous Version | Text Only | Print | Product List | Glossary On
Versions: 1 2 3 4 5 6 7 8 9 10 11 12
000
FTUS42 KCHS 031720
TAFCHS
TAF
KCHS 031720Z 0318/0418 23005KT P6SM SCT040 BKN150
     FM032100 16007KT P6SM SCT050 BKN200
     FM040800 32003KT P6SM FEW035 SCT250=

USA.gov is the U.S. government's official web portal to all federal, state and local government web resources and services.